• Join FlightAware (Why Join?)
  • Login
  • US Flag 
01:18PM EDT


 

Airport Tracker/Info


-or-


 

Live Flight TrackerFlight Track Log ✈ B-18725 ✈ 28-Apr-2013 ✈ PANC - RCTP / TPE

Flight Track Log - Related Links

Times and Time Zones

All times are in EDT time to prevent confusion due to time zone crossing. See the B-18725 flight status page for this flight to view local times or setup timezone preferences in your user account.

Time Position Orientation Groundspeed Altitude Reporting Facility
EDT Latitude Longitude Course Direction KTS MPH feet Rate Location/Type
03:44AM 61.2100 -150.0200 346° North 164 189 1,000  Level FlightAware
03:44AM 61.2180 -150.0330 322° Northwest 166 191 1,500 1,980 Climbing FlightAware
03:45AM 61.2270 -150.0530 313° West 171 197 2,000 1,560 Climbing FlightAware
03:45AM 61.2290 -150.0740 281° West 178 205 2,300 1,800 Climbing FlightAware
03:45AM 61.2300 -150.1190 273° West 176 203 3,200 1,620 Climbing FlightAware
03:46AM 61.2310 -150.1430 275° West 188 216 3,400 780 Climbing FlightAware
03:46AM 61.2340 -150.2040 276° West 222 255 3,800 960 Climbing FlightAware
03:46AM 61.2360 -150.2610 274° West 248 285 4,300 1,620 Climbing FlightAware
03:47AM 61.2390 -150.3370 275° West 268 308 5,300 2,280 Climbing FlightAware
03:47AM 61.2410 -150.4090 273° West 275 316 6,600 2,700 Climbing FlightAware
03:48AM 61.2420 -150.4770 272° West 275 316 7,800 2,640 Climbing FlightAware
03:48AM 61.2450 -150.5440 275° West 281 323 8,800 2,220 Climbing FlightAware
03:49AM 61.2490 -150.6630 274° West 298 343 10,400 1,680 Climbing FlightAware
03:50AM 61.2530 -150.7870 274° West 337 388 11,200 1,680 Climbing FlightAware
03:50AM 61.2570 -150.9430 273° West 364 419 12,800 2,460 Climbing FlightAware
03:51AM 61.2610 -151.1000 273° West 375 432 14,900 2,820 Climbing FlightAware
03:52AM 61.2650 -151.2460 273° West 388 447 16,800 2,820 Climbing FlightAware
03:53AM 61.2690 -151.3980 273° West 398 458 18,700 2,700 Climbing FlightAware
03:53AM 61.2740 -151.5690 274° West 406 467 20,700 2,580 Climbing FlightAware
03:54AM 61.2770 -151.7280 272° West 414 476 22,400 2,400 Climbing FlightAware
03:55AM 61.2810 -151.8880 273° West 421 484 23,900 2,160 Climbing FlightAware
03:55AM 61.2850 -152.0700 273° West 432 497 25,500 2,100 Climbing FlightAware
03:56AM 61.2850 -152.2390 270° West 439 505 26,900 1,920 Climbing FlightAware
03:57AM 61.2850 -152.4280 270° West 447 514 28,300 1,800 Climbing FlightAware
03:58AM 61.2860 -152.7990 270° West 454 522 30,800 1,800 Climbing FlightAware
03:59AM 61.2860 -152.9340 270° West 453 521 31,800 1,620 Climbing FlightAware
04:00AM 61.2860 -153.1520 270° West 455 524 33,000 1,320 Climbing FlightAware
04:00AM 61.2850 -153.3470 269° West 457 526 33,900 660 Climbing FlightAware
04:01AM 61.2850 -153.5230 270° West 457 526 34,000 60 Climbing FlightAware
04:02AM 61.2840 -153.6950 269° West 455 524 34,000  Level FlightAware
04:03AM 61.2810 -154.0200 269° West 451 519 34,000  Level FlightAware
04:05AM 61.2760 -154.5910 269° West 448 516 34,000  Level FlightAware
04:06AM 61.2750 -154.7380 269° West 448 516 34,000  Level FlightAware
04:07AM 61.2690 -155.0140 268° West 448 516 34,000  Level FlightAware
04:07AM 61.2670 -155.1610 268° West 448 516 34,000  Level FlightAware
04:08AM 61.2640 -155.3070 268° West 448 516 34,000  Level FlightAware
04:09AM 61.2620 -155.4540 268° West 448 516 34,000  Level FlightAware
04:10AM 61.2590 -155.6370 268° West 448 516 34,000  Level FlightAware
04:10AM 61.2560 -155.7830 268° West 448 516 34,000  Level FlightAware
04:11AM 61.2540 -155.9300 268° West 448 516 34,000  Level FlightAware
04:12AM 61.2510 -156.0760 268° West 448 516 34,000  Level FlightAware
04:12AM 61.2490 -156.2230 268° West 448 516 34,000  Level FlightAware
04:13AM 61.2460 -156.3690 268° West 448 516 34,000  Level FlightAware
04:14AM 61.2430 -156.5520 268° West 448 516 34,000  Level FlightAware
04:14AM 61.2410 -156.6980 268° West 448 516 34,000  Level FlightAware
04:15AM 61.2380 -156.8450 268° West 448 516 34,000  Level FlightAware
04:16AM 61.2360 -156.9910 268° West 448 516 34,000 600 Level FlightAware
04:17AM 61.2500 -157.5667 268° West 450 518 35,000 480 Climbing Anchorage Center
04:18AM 61.2500 -157.8167 270° West 450 518 35,000  Level Anchorage Center
04:19AM 61.2333 -158.0833 263° West 450 518 35,000  Level Anchorage Center
04:20AM 61.2333 -158.3500 270° West 450 518 35,000  Level Anchorage Center
04:21AM 61.2333 -158.6000 270° West 450 518 35,000  Level Anchorage Center
04:22AM 61.2333 -158.8667 270° West 440 506 35,000  Level Anchorage Center
04:23AM 61.2333 -159.1333 270° West 450 518 35,000  Level Anchorage Center
04:24AM 61.2167 -159.3833 262° West 440 506 35,000  Level Anchorage Center
04:25AM 61.2167 -159.6500 270° West 450 518 35,000  Level Anchorage Center
04:26AM 61.2167 -159.9000 270° West 450 518 35,000  Level Anchorage Center
04:27AM 61.2167 -160.1667 270° West 450 518 35,000  Level Anchorage Center
04:28AM 61.2000 -160.4167 262° West 440 506 35,000  Level Anchorage Center
04:29AM 61.2000 -160.6833 270° West 440 506 35,000  Level Anchorage Center
04:30AM 61.1833 -160.9500 263° West 440 506 35,000  Level Anchorage Center
04:31AM 61.1833 -161.2000 270° West 440 506 35,000  Level Anchorage Center
04:32AM 61.1667 -161.4500 262° West 440 506 35,000  Level Anchorage Center
04:33AM 61.1667 -161.7167 270° West 440 506 35,000  Level Anchorage Center
04:34AM 61.1500 -161.9667 262° West 440 506 35,000  Level Anchorage Center
04:35AM 61.1333 -162.2167 262° West 440 506 35,000  Level Anchorage Center
04:36AM 61.1333 -162.4667 270° West 430 495 35,000  Level Anchorage Center
04:37AM 61.1167 -162.7333 263° West 440 506 35,000  Level Anchorage Center
04:38AM 61.1000 -162.9833 262° West 430 495 35,000  Level Anchorage Center
04:39AM 61.0833 -163.2333 262° West 440 506 35,000  Level Anchorage Center
04:40AM 61.0333 -163.4833 248° West 460 529 35,000  Level Anchorage Center
04:41AM 61.0000 -163.7333 255° West 460 529 35,000  Level Anchorage Center
04:42AM 60.9667 -164.0000 256° West 460 529 35,000  Level Anchorage Center
04:43AM 60.9333 -164.2500 255° West 450 518 35,000  Level Anchorage Center
04:44AM 60.8833 -164.5000 248° West 460 529 35,000  Level Anchorage Center
04:45AM 60.8500 -164.7500 255° West 450 518 35,000  Level Anchorage Center
04:46AM 60.8167 -165.0000 255° West 450 518 35,000  Level Anchorage Center
04:47AM 60.7667 -165.2500 248° West 460 529 35,000  Level Anchorage Center
04:48AM 60.7333 -165.5000 255° West 450 518 35,000  Level Anchorage Center
04:49AM 60.7000 -165.7500 255° West 460 529 35,000  Level Anchorage Center
04:50AM 60.6500 -166.0000 248° West 460 529 35,000  Level Anchorage Center
04:51AM 60.6167 -166.2500 255° West 460 529 35,000  Level Anchorage Center
04:52AM 60.5667 -166.5000 248° West 460 529 35,000  Level Anchorage Center
04:53AM 60.5333 -166.7500 255° West 460 529 35,000  Level Anchorage Center
04:54AM 60.4833 -167.0000 248° West 460 529 35,000  Level Anchorage Center
04:55AM 60.4333 -167.2500 248° West 460 529 35,000  Level Anchorage Center
04:56AM 60.4000 -167.4833 254° West 460 529 35,000  Level Anchorage Center
04:57AM 60.3500 -167.7333 248° West 470 541 35,000  Level Anchorage Center
04:58AM 60.3167 -167.9833 255° West 460 529 35,000  Level Anchorage Center
04:59AM 60.2667 -168.2333 248° West 460 529 35,000  Level Anchorage Center
05:00AM 60.2167 -168.4667 247° West 450 518 35,000  Level Anchorage Center
05:01AM 60.1667 -168.7167 248° West 450 518 35,000  Level Anchorage Center
05:02AM 60.1333 -168.9500 254° West 460 529 35,000  Level Anchorage Center
05:03AM 60.0833 -169.2000 248° West 460 529 35,000  Level Anchorage Center
05:04AM 60.0333 -169.4333 247° West 460 529 35,000  Level Anchorage Center
05:05AM 59.9833 -169.6667 247° West 460 529 35,100 480 Climbing Anchorage Center
05:06AM 59.9333 -169.9167 248° West 460 529 36,000 420 Climbing Anchorage Center
05:07AM 59.9000 -170.1500 254° West 460 529 36,000  Level Anchorage Center
05:08AM 59.8500 -170.4000 248° West 480 552 36,000  Level Anchorage Center
05:09AM 59.8000 -170.6333 247° West 450 518 36,000  Level Anchorage Center
05:10AM 59.7500 -170.8833 248° West 460 529 36,000  Level Anchorage Center
05:11AM 59.7000 -171.1167 247° West 460 529 36,000  Level Anchorage Center
05:12AM 59.6500 -171.3667 248° West 470 541 36,000  Level Anchorage Center
05:13AM 59.6000 -171.6000 247° West 470 541 36,000  Level Anchorage Center
05:14AM 59.5500 -171.8333 247° West 470 541 36,000  Level Anchorage Center
05:15AM 59.5000 -172.0667 247° West 470 541 36,000  Level Anchorage Center
05:16AM 59.4500 -172.3167 249° West 470 541 36,000  Level Anchorage Center
05:17AM 59.4000 -172.5500 247° West 470 541 36,000  Level Anchorage Center
05:18AM 59.3500 -172.8000 249° West 470 541 36,000  Level Anchorage Center
05:19AM 59.3000 -173.0333 247° West 470 541 36,000  Level Anchorage Center
05:20AM 59.2500 -173.2667 247° West 480 552 36,000  Level Anchorage Center
05:21AM 59.2000 -173.5167 249° West 480 552 36,000  Level Anchorage Center
05:22AM 59.1500 -173.7500 247° West 470 541 36,000  Level Anchorage Center
05:23AM 59.1000 -173.9833 247° West 470 541 36,000  Level Anchorage Center
05:24AM 59.0333 -174.2167 241° Southwest 470 541 36,000  Level Anchorage Center
05:25AM 58.9833 -174.4667 249° West 480 552 36,000  Level Anchorage Center
05:26AM 58.9333 -174.7000 248° West 480 552 36,000  Level Anchorage Center
05:27AM 58.8833 -174.9333 248° West 470 541 36,000  Level Anchorage Center
05:28AM 58.8333 -175.1667 248° West 480 552 36,000  Level Anchorage Center
05:29AM 58.7833 -175.4000 248° West 470 541 36,000  Level Anchorage Center
05:30AM 58.7167 -175.6333 241° Southwest 470 541 36,000  Level Anchorage Center
05:31AM 58.6667 -175.8667 248° West 480 552 36,000  Level Anchorage Center
05:32AM 58.6167 -176.1000 248° West 470 541 36,000  Level Anchorage Center
05:33AM 58.5500 -176.3333 241° Southwest 470 541 36,000  Level Anchorage Center
05:34AM 58.5000 -176.5667 248° West 480 552 36,000  Level Anchorage Center
05:35AM 58.4500 -176.8000 248° West 480 552 36,000  Level Anchorage Center
05:36AM 58.3833 -177.0333 241° Southwest 480 552 36,000  Level Anchorage Center
05:38AM 58.2667 -177.5000 245° Southwest 470 541 36,000  Level Anchorage Center
05:40AM 58.1826 -177.8396 245° Southwest  Level FlightAware Approximate
05:47AM 57.8002 -179.3218 245° Southwest  Level FlightAware Approximate
05:48AM 57.7442 -179.5310 243° Southwest  Level FlightAware Approximate
05:49AM 57.6878 -179.7395 243° Southwest  Level FlightAware Approximate
05:50AM 57.6311 -179.9474 243° Southwest  Level FlightAware Approximate
05:50AM 57.5667 179.8000 242° Southwest 495 570 36,000  Level Anchorage Center
05:51AM 57.5730 179.8464 242° Southwest  Level FlightAware Approximate
05:52AM 57.5143 179.6412 242° Southwest  Level FlightAware Approximate
05:53AM 57.4552 179.4366 242° Southwest  Level FlightAware Approximate
05:54AM 57.3958 179.2328 242° Southwest  Level FlightAware Approximate
05:55AM 57.3360 179.0295 241° Southwest  Level FlightAware Approximate
05:56AM 57.1740 178.4589 241° Southwest 495 570 36,000  Level FlightAware Transoceanic
05:57AM 57.1072 178.2382 241° Southwest 495 570 36,000  Level FlightAware Transoceanic
05:58AM 57.0400 178.0183 241° Southwest 495 570 36,000  Level FlightAware Transoceanic
05:59AM 56.9724 177.7991 240° Southwest 495 570 36,000  Level FlightAware Transoceanic
06:00AM 56.9044 177.5808 240° Southwest 495 570 36,000  Level FlightAware Transoceanic
06:01AM 56.8360 177.3633 240° Southwest 495 570 36,000  Level FlightAware Transoceanic
06:01AM 56.8333 177.3500 240° Southwest 494 568 36,000  Level Anchorage Center
06:02AM 56.7673 177.1465 240° Southwest 495 570 36,000  Level FlightAware Transoceanic
06:03AM 56.6982 176.9306 240° Southwest 495 570 36,000  Level FlightAware Transoceanic
06:04AM 56.6287 176.7154 239° Southwest 495 570 36,000  Level FlightAware Transoceanic
06:05AM 56.5589 176.5011 239° Southwest 495 570 36,000  Level FlightAware Transoceanic
06:06AM 56.4887 176.2875 239° Southwest 495 570 36,000  Level FlightAware Transoceanic
06:07AM 56.4159 176.0647 239° Southwest 494 568 36,000  Level FlightAware Transoceanic
06:08AM 56.3451 175.8532 239° Southwest 494 568 36,000  Level FlightAware Transoceanic
06:08AM 56.3333 175.8333 238° Southwest 510 587 36,000  Level Anchorage Center
06:09AM 56.2738 175.6425 239° Southwest 494 568 36,000  Level FlightAware Transoceanic
06:10AM 56.2023 175.4327 238° Southwest 494 568 36,000  Level FlightAware Transoceanic
06:10AM 56.1833 175.4333 236° Southwest 490 564 36,000  Level Anchorage Center
06:11AM 56.1304 175.2236 238° Southwest 494 568 36,000  Level FlightAware Transoceanic
06:11AM 56.1333 175.2333 246° West 510 587 36,000  Level Anchorage Center
06:12AM 56.0581 175.0152 238° Southwest 494 568 36,000  Level FlightAware Transoceanic
06:12AM 56.0500 175.0000 237° Southwest 500 575 36,000  Level Anchorage Center
06:13AM 55.9855 174.8077 238° Southwest 494 568 36,000  Level FlightAware Transoceanic
06:13AM 55.9833 174.8167 237° Southwest 510 587 36,000  Level Anchorage Center
06:14AM 55.9000 174.5833 238° Southwest 500 575 36,000  Level Anchorage Center
06:15AM 55.8167 174.3667 236° Southwest 500 575 36,000  Level Anchorage Center
06:16AM 55.7500 174.1667 239° Southwest 510 587 36,000  Level Anchorage Center
06:17AM 55.6667 173.9500 236° Southwest 500 575 36,000  Level Anchorage Center
06:18AM 55.6000 173.7667 237° Southwest 500 575 36,000  Level Anchorage Center
06:19AM 55.5167 173.5500 236° Southwest 500 575 36,000  Level Anchorage Center
06:20AM 55.4500 173.3667 237° Southwest 500 575 36,000  Level Anchorage Center
06:21AM 55.3667 173.1500 236° Southwest 500 575 36,000  Level Anchorage Center
06:22AM 55.2833 172.9333 236° Southwest 500 575 36,000  Level Anchorage Center
06:23AM 55.2167 172.7500 238° Southwest 500 575 36,000  Level Anchorage Center
06:24AM 55.1333 172.5333 236° Southwest 500 575 36,000  Level Anchorage Center
06:25AM 55.0667 172.3667 235° Southwest 490 564 36,000  Level Anchorage Center
06:26AM 54.9833 172.1333 238° Southwest 500 575 36,000  Level Anchorage Center
06:27AM 54.9167 171.9667 235° Southwest 490 564 36,000  Level Anchorage Center
06:28AM 54.8333 171.7667 234° Southwest 480 552 36,000  Level Anchorage Center
06:29AM 54.7667 171.5833 238° Southwest 490 564 36,000  Level Anchorage Center
06:30AM 54.6833 171.3833 234° Southwest 490 564 36,000  Level Anchorage Center
06:31AM 54.5833 171.1833 229° Southwest 490 564 36,000  Level Anchorage Center
06:32AM 54.5167 171.0000 238° Southwest 490 564 36,000  Level Anchorage Center
06:33AM 54.4333 170.8000 234° Southwest 480 552 36,000  Level Anchorage Center
06:34AM 54.3667 170.6333 236° Southwest 490 564 36,000  Level Anchorage Center
06:35AM 54.2667 170.4333 229° Southwest 490 564 36,000  Level Anchorage Center
06:36AM 54.2000 170.2667 236° Southwest 490 564 36,000  Level Anchorage Center
06:37AM 54.1167 170.0667 235° Southwest 490 564 36,000  Level Anchorage Center
06:38AM 54.0167 169.8667 230° Southwest 490 564 36,000 180 Level Anchorage Center
06:39AM 53.9500 169.7000 236° Southwest 490 564 36,400 480 Climbing Anchorage Center
06:40AM 53.8667 169.5000 235° Southwest 490 564 37,000 300 Climbing Anchorage Center
06:41AM 53.8000 169.3500 233° Southwest 490 564 37,000  Level Anchorage Center
06:42AM 53.7000 169.1500 230° Southwest 510 587 37,000  Level Anchorage Center
06:43AM 53.6500 168.9667 245° Southwest 510 587 37,000  Level Anchorage Center
06:44AM 53.5833 168.7500 243° Southwest 480 552 37,000  Level Anchorage Center
06:45AM 53.5167 168.5833 236° Southwest 490 564 37,000  Level Anchorage Center
06:46AM 53.4500 168.3667 243° Southwest 520 598 37,000  Level Anchorage Center
06:48AM 53.3417 168.0649 240° Southwest  Level FlightAware Approximate
06:55AM 52.8959 166.8133 240° Southwest  Level FlightAware Approximate
06:56AM 52.8312 166.6366 239° Southwest  Level FlightAware Approximate
06:57AM 52.7662 166.4605 239° Southwest  Level FlightAware Approximate
06:58AM 52.7009 166.2848 239° Southwest  Level FlightAware Approximate
06:59AM 52.6354 166.1097 238° Southwest  Level FlightAware Approximate
07:00AM 52.5696 165.9352 238° Southwest  Level FlightAware Approximate
07:01AM 52.5033 165.7614 238° Southwest  Level FlightAware Approximate
07:02AM 52.4365 165.5884 238° Southwest  Level FlightAware Approximate
07:03AM 52.3695 165.4159 238° Southwest  Level FlightAware Approximate
07:04AM 52.3022 165.2439 237° Southwest  Level FlightAware Approximate
07:05AM 52.2347 165.0724 237° Southwest  Level FlightAware Approximate
07:06AM 52.1670 164.9014 237° Southwest  Level FlightAware Approximate
07:07AM 52.0989 164.7310 237° Southwest  Level FlightAware Approximate
07:08AM 52.0307 164.5611 237° Southwest  Level FlightAware Approximate
07:09AM 51.9622 164.3917 237° Southwest  Level FlightAware Approximate
07:10AM 51.8935 164.2228 237° Southwest  Level FlightAware Approximate
07:10AM 51.7833 163.9500 234° Southwest 466 536 37,000  Level Anchorage Center
07:11AM 51.8245 164.0544 237° Southwest  Level FlightAware Approximate
07:12AM 51.7553 163.8866 236° Southwest  Level FlightAware Approximate
07:12AM 51.6500 163.6500 236° Southwest 466 536 37,000  Level Anchorage Center
07:13AM 51.6858 163.7193 236° Southwest  Level FlightAware Approximate
07:14AM 51.6160 163.5526 236° Southwest  Level FlightAware Approximate
07:15AM 51.5457 163.3867 236° Southwest  Level FlightAware Approximate
07:16AM 51.3515 162.9380 236° Southwest 466 536 37,000  Level FlightAware Transoceanic
07:17AM 51.2762 162.7614 236° Southwest 466 536 37,000  Level FlightAware Transoceanic
07:18AM 51.2181 162.6260 236° Southwest 466 536 37,000  Level FlightAware Transoceanic
07:19AM 51.1452 162.4572 235° Southwest 466 536 37,000  Level FlightAware Transoceanic
07:20AM 51.0721 162.2890 235° Southwest 466 536 37,000  Level FlightAware Transoceanic
07:21AM 50.9988 162.1213 235° Southwest 466 536 37,000  Level FlightAware Transoceanic
07:22AM 50.9252 161.9541 235° Southwest 466 536 37,000  Level FlightAware Transoceanic
07:23AM 50.8514 161.7874 235° Southwest 466 536 37,000  Level FlightAware Transoceanic
07:24AM 50.7774 161.6213 235° Southwest 466 536 37,000  Level FlightAware Transoceanic
07:25AM 50.7031 161.4557 235° Southwest 466 536 37,000  Level FlightAware Transoceanic
07:26AM 50.6286 161.2906 234° Southwest 466 536 37,000  Level FlightAware Transoceanic
07:27AM 50.5538 161.1260 234° Southwest 466 536 37,000  Level FlightAware Transoceanic
07:28AM 50.4789 160.9620 234° Southwest 466 536 37,000  Level FlightAware Transoceanic
07:29AM 50.4037 160.7985 234° Southwest 466 536 37,000  Level FlightAware Transoceanic
07:30AM 50.3282 160.6355 234° Southwest 466 536 37,000  Level FlightAware Transoceanic
07:31AM 50.2526 160.4730 234° Southwest 466 536 37,000  Level FlightAware Transoceanic
07:31AM 50.2000 160.3833 234° Southwest 479 551 37,000  Level Anchorage Center
07:32AM 50.1767 160.3110 234° Southwest 466 536 37,000  Level FlightAware Transoceanic
07:33AM 50.1006 160.1496 234° Southwest 466 536 37,000  Level FlightAware Transoceanic
07:34AM 50.0242 159.9886 233° Southwest 466 536 37,000  Level FlightAware Transoceanic
07:35AM 49.9477 159.8282 233° Southwest 466 536 37,000  Level FlightAware Transoceanic
07:36AM 49.8709 159.6683 233° Southwest 466 536 37,000  Level FlightAware Transoceanic
07:37AM 49.7863 159.4964 234° Southwest 479 551 37,000  Level FlightAware Transoceanic
07:38AM 49.7167 159.3500 233° Southwest 479 551 37,000  Level FlightAware Transoceanic
07:39AM 49.6356 159.1846 233° Southwest 479 551 37,000  Level FlightAware Transoceanic
07:40AM 49.5544 159.0198 233° Southwest 479 551 37,000  Level FlightAware Transoceanic
07:41AM 49.4729 158.8555 233° Southwest 479 551 37,000  Level FlightAware Transoceanic
07:42AM 49.3912 158.6918 232° Southwest 479 551 37,000  Level FlightAware Transoceanic
07:43AM 49.3092 158.5286 232° Southwest 479 551 37,000  Level FlightAware Transoceanic
07:44AM 49.2270 158.3659 232° Southwest 479 551 37,000  Level FlightAware Transoceanic
07:45AM 49.1446 158.2038 232° Southwest 479 551 37,000  Level FlightAware Transoceanic
07:46AM 49.0619 158.0422 232° Southwest 479 551 37,000  Level FlightAware Transoceanic
07:47AM 48.9791 157.8812 232° Southwest 479 551 37,000  Level FlightAware Transoceanic
07:48AM 48.8960 157.7207 232° Southwest 479 551 37,000  Level FlightAware Transoceanic
07:49AM 48.8127 157.5607 232° Southwest 479 551 37,000  Level FlightAware Transoceanic
07:50AM 48.7291 157.4013 231° Southwest 479 551 37,000  Level FlightAware Transoceanic
07:51AM 48.6454 157.2424 231° Southwest 479 551 37,000  Level FlightAware Transoceanic
07:52AM 48.5614 157.0840 231° Southwest 479 551 37,000  Level FlightAware Transoceanic
07:53AM 48.4772 156.9262 231° Southwest 479 551 37,000  Level FlightAware Transoceanic
07:54AM 48.3928 156.7688 231° Southwest 479 551 37,000  Level FlightAware Transoceanic
07:55AM 48.3082 156.6120 231° Southwest 479 551 37,000  Level FlightAware Transoceanic
07:56AM 48.2234 156.4557 231° Southwest 479 551 37,000  Level FlightAware Transoceanic
07:57AM 48.1383 156.3000 231° Southwest 479 551 37,000  Level FlightAware Transoceanic
07:58AM 48.0531 156.1447 231° Southwest 479 551 37,000  Level FlightAware Transoceanic
07:59AM 47.9676 155.9900 230° Southwest 479 551 37,000  Level FlightAware Transoceanic
08:00AM 47.8820 155.8358 230° Southwest 479 551 37,000  Level FlightAware Transoceanic
08:01AM 47.7961 155.6820 230° Southwest 479 551 37,000  Level FlightAware Transoceanic
08:02AM 47.7100 155.5288 230° Southwest 479 551 37,000  Level FlightAware Transoceanic
08:03AM 47.6237 155.3761 230° Southwest 479 551 37,000  Level FlightAware Transoceanic
08:04AM 47.5373 155.2239 230° Southwest 479 551 37,000  Level FlightAware Transoceanic
08:05AM 47.4506 155.0722 230° Southwest 479 551 37,000  Level FlightAware Transoceanic
08:06AM 47.3637 154.9210 230° Southwest 479 551 37,000  Level FlightAware Transoceanic
08:07AM 47.2766 154.7703 230° Southwest 479 551 37,000  Level FlightAware Transoceanic
08:08AM 47.1893 154.6201 229° Southwest 479 551 37,000  Level FlightAware Transoceanic
08:09AM 47.1019 154.4704 229° Southwest 479 551 37,000  Level FlightAware Transoceanic
08:10AM 47.0142 154.3212 229° Southwest 479 551 37,000  Level FlightAware Transoceanic
08:11AM 46.9263 154.1725 229° Southwest 479 551 37,000  Level FlightAware Transoceanic
08:12AM 46.8383 154.0242 229° Southwest 479 551 37,000  Level FlightAware Transoceanic
08:13AM 46.7501 153.8765 229° Southwest 479 551 37,000  Level FlightAware Transoceanic
08:14AM 46.6616 153.7292 229° Southwest 479 551 37,000  Level FlightAware Transoceanic
08:15AM 46.5730 153.5824 229° Southwest 479 551 37,000  Level FlightAware Transoceanic
08:16AM 46.4842 153.4361 229° Southwest 479 551 37,000  Level FlightAware Transoceanic
08:17AM 46.3952 153.2903 228° Southwest 479 551 37,000  Level FlightAware Transoceanic
08:18AM 46.3060 153.1449 228° Southwest 479 551 37,000  Level FlightAware Transoceanic
08:19AM 46.2231 153.0104 228° Southwest  Level FlightAware Approximate
08:20AM 46.1400 152.8763 228° Southwest  Level FlightAware Approximate
08:21AM 46.1460 152.8872 228° Southwest  Level FlightAware Approximate
08:22AM 46.0622 152.7541 228° Southwest  Level FlightAware Approximate
08:23AM 45.9783 152.6214 228° Southwest  Level FlightAware Approximate
08:24AM 45.8942 152.4892 228° Southwest  Level FlightAware Approximate
08:25AM 45.8100 152.3573 228° Southwest  Level FlightAware Approximate
08:26AM 45.7256 152.2258 227° Southwest  Level FlightAware Approximate
08:27AM 45.6411 152.0947 227° Southwest  Level FlightAware Approximate
08:28AM 45.5564 151.9641 227° Southwest  Level FlightAware Approximate
08:29AM 45.4716 151.8338 227° Southwest  Level FlightAware Approximate
08:30AM 45.3866 151.7039 227° Southwest  Level FlightAware Approximate
08:31AM 45.3015 151.5744 227° Southwest  Level FlightAware Approximate
08:32AM 45.2163 151.4453 227° Southwest  Level FlightAware Approximate
08:33AM 45.1308 151.3166 227° Southwest  Level FlightAware Approximate
08:34AM 45.0453 151.1882 227° Southwest  Level FlightAware Approximate
08:35AM 44.9596 151.0603 227° Southwest  Level FlightAware Approximate
08:36AM 44.8737 150.9327 227° Southwest  Level FlightAware Approximate
08:37AM 44.7878 150.8055 226° Southwest  Level FlightAware Approximate
08:38AM 44.7016 150.6787 226° Southwest  Level FlightAware Approximate
08:39AM 44.6154 150.5523 226° Southwest  Level FlightAware Approximate
08:40AM 44.5290 150.4262 226° Southwest  Level FlightAware Approximate
08:41AM 44.4425 150.3005 226° Southwest  Level FlightAware Approximate
08:42AM 44.3558 150.1752 226° Southwest  Level FlightAware Approximate
08:43AM 44.2690 150.0503 226° Southwest  Level FlightAware Approximate
08:44AM 44.1820 149.9257 226° Southwest  Level FlightAware Approximate
08:45AM 44.0949 149.8015 226° Southwest  Level FlightAware Approximate
08:46AM 44.0077 149.6776 226° Southwest  Level FlightAware Approximate
08:47AM 43.9204 149.5542 226° Southwest  Level FlightAware Approximate
08:48AM 43.8329 149.4310 225° Southwest  Level FlightAware Approximate
08:49AM 43.7453 149.3083 225° Southwest  Level FlightAware Approximate
08:50AM 43.6575 149.1859 225° Southwest  Level FlightAware Approximate
08:50AM 43.4010 148.8310 225° Southwest 481 554 38,000  Level FlightAware
08:50AM 43.3340 148.7390 225° Southwest 480 552 38,000  Level FlightAware
08:51AM 43.2630 148.6420 225° Southwest 479 551 38,000  Level FlightAware
08:52AM 43.2000 148.5560 225° Southwest 478 550 38,000  Level FlightAware
08:54AM 43.0331 148.3299 225° Southwest  Level FlightAware Approximate
08:54AM 42.9820 148.2610 225° Southwest 478 550 38,000  Level FlightAware
08:55AM 42.9170 148.1740 224° Southwest 477 549 38,000  Level FlightAware
08:55AM 42.8470 148.0800 225° Southwest 477 549 38,000  Level FlightAware
08:56AM 42.7850 147.9970 225° Southwest 475 547 38,000  Level FlightAware
08:57AM 42.7130 147.9010 224° Southwest 472 543 38,000  Level FlightAware
08:57AM 42.6480 147.8150 224° Southwest 472 543 38,000  Level FlightAware
08:58AM 42.5870 147.7340 224° Southwest 471 542 38,000  Level FlightAware
08:59AM 42.5180 147.6430 224° Southwest 469 540 38,000  Level FlightAware
09:00AM 42.4560 147.5610 224° Southwest 467 537 38,000  Level FlightAware
09:00AM 42.4020 147.4910 224° Southwest 459 528 38,000  Level FlightAware
09:03AM 42.1901 147.2097 225° Southwest  Level FlightAware Approximate
09:04AM 42.1011 147.0921 224° Southwest  Level FlightAware Approximate
09:05AM 42.0119 146.9748 224° Southwest  Level FlightAware Approximate
09:06AM 41.9227 146.8578 224° Southwest  Level FlightAware Approximate
09:07AM 41.8326 146.7421 224° Southwest  Level FlightAware Approximate
09:08AM 41.7424 146.6268 224° Southwest  Level FlightAware Approximate
09:09AM 41.6521 146.5117 224° Southwest  Level FlightAware Approximate
09:10AM 41.5617 146.3970 224° Southwest  Level FlightAware Approximate
09:11AM 41.4712 146.2827 223° Southwest  Level FlightAware Approximate
09:12AM 41.3806 146.1686 223° Southwest  Level FlightAware Approximate
09:13AM 41.2898 146.0549 223° Southwest  Level FlightAware Approximate
09:14AM 41.1989 145.9415 223° Southwest  Level FlightAware Approximate
09:15AM 41.1080 145.8284 223° Southwest  Level FlightAware Approximate
09:16AM 41.0169 145.7156 223° Southwest  Level FlightAware Approximate
09:17AM 40.9257 145.6031 223° Southwest  Level FlightAware Approximate
09:17AM 40.8330 145.4990 223° Southwest 461 531 38,000  Level FlightAware
09:18AM 40.7700 145.4220 223° Southwest 459 528 38,000  Level FlightAware
09:18AM 40.7000 145.3360 223° Southwest 447 514 38,000  Level FlightAware
09:20AM 40.5780 145.1870 223° Southwest 443 510 38,000  Level FlightAware
09:20AM 40.5570 145.1620 222° Southwest 443 510 38,000  Level FlightAware
09:22AM 40.4100 144.9820 223° Southwest 430 495 38,000  Level FlightAware
09:22AM 40.3710 144.8930 240° Southwest 415 478 38,000  Level FlightAware
09:23AM 40.3280 144.8000 239° Southwest 414 476 38,000  Level FlightAware
09:24AM 40.2870 144.7100 239° Southwest 414 476 38,000  Level FlightAware
09:24AM 40.2420 144.6150 238° Southwest 414 476 38,000  Level FlightAware
09:25AM 40.1970 144.5190 238° Southwest 417 480 38,000  Level FlightAware
09:26AM 40.1650 144.4510 238° Southwest 424 488 38,000  Level FlightAware
09:27AM 40.1240 144.3660 238° Southwest 424 488 38,000  Level FlightAware
09:27AM 40.0890 144.2920 238° Southwest 424 488 38,000  Level FlightAware
09:28AM 40.0450 144.1990 238° Southwest 424 488 38,000  Level FlightAware
09:29AM 40.0090 144.1260 237° Southwest 424 488 38,000  Level FlightAware
09:29AM 39.9740 144.0520 238° Southwest 424 488 38,000  Level FlightAware
09:30AM 39.9380 143.9780 238° Southwest 424 488 38,000  Level FlightAware
09:31AM 39.9030 143.9040 238° Southwest 424 488 38,000  Level FlightAware
09:32AM 39.8590 143.8120 238° Southwest 424 488 38,000  Level FlightAware
09:32AM 39.8240 143.7380 238° Southwest 424 488 38,000  Level FlightAware
09:33AM 39.7880 143.6650 237° Southwest 424 488 38,000  Level FlightAware
09:34AM 39.7530 143.5910 238° Southwest 424 488 38,000  Level FlightAware
09:34AM 39.7180 143.5180 238° Southwest 424 488 38,000  Level FlightAware
09:35AM 39.6730 143.4260 238° Southwest 424 488 38,000  Level FlightAware
09:36AM 39.5190 143.1450 235° Southwest 428 493 38,000  Level FlightAware
09:36AM 39.4770 143.0620 237° Southwest 432 497 38,000  Level FlightAware
09:37AM 39.4240 142.9600 236° Southwest 430 495 38,000  Level FlightAware
09:38AM 39.3800 142.8750 236° Southwest 424 488 38,000  Level FlightAware
09:38AM 39.3380 142.7940 236° Southwest 423 487 38,000  Level FlightAware
09:39AM 39.2870 142.6950 236° Southwest 422 486 38,000  Level FlightAware
09:40AM 39.2430 142.6100 236° Southwest 421 484 38,000  Level FlightAware
09:41AM 39.1940 142.5170 236° Southwest 417 480 38,000  Level FlightAware
09:41AM 39.1450 142.4240 236° Southwest 417 480 38,000  Level FlightAware
09:42AM 39.1010 142.3400 236° Southwest 416 479 38,000  Level FlightAware
09:43AM 39.0520 142.2470 236° Southwest 414 476 38,000  Level FlightAware
09:44AM 39.0070 142.1610 236° Southwest 414 476 38,000  Level FlightAware
09:45AM 38.9230 142.0040 236° Southwest 414 476 38,000  Level FlightAware
09:46AM 38.8730 141.9090 236° Southwest 416 479 38,000  Level FlightAware
09:46AM 38.8240 141.8160 236° Southwest 418 481 38,000  Level FlightAware
09:47AM 38.7790 141.7330 235° Southwest 423 487 38,000  Level FlightAware
09:48AM 38.7350 141.6510 235° Southwest 422 486 38,000  Level FlightAware
09:48AM 38.6850 141.5580 235° Southwest 421 484 38,000  Level FlightAware
09:49AM 38.6410 141.4770 235° Southwest 420 483 38,000  Level FlightAware
09:50AM 38.5960 141.3950 235° Southwest 420 483 38,000  Level FlightAware
09:50AM 38.5470 141.3030 236° Southwest 420 483 38,000  Level FlightAware
09:51AM 38.5020 141.2210 235° Southwest 421 484 38,000  Level FlightAware
09:52AM 38.4580 141.1400 235° Southwest 420 483 38,000  Level FlightAware
09:53AM 38.4090 141.0510 235° Southwest 410 472 38,000  Level FlightAware
09:53AM 38.3640 140.9690 235° Southwest 407 468 38,000  Level FlightAware
09:54AM 38.3150 140.8810 235° Southwest 403 464 38,000  Level FlightAware
09:55AM 38.2720 140.8030 235° Southwest 400 460 38,000  Level FlightAware
09:55AM 38.2300 140.7250 236° Southwest 398 458 38,000  Level FlightAware
09:56AM 38.1810 140.6380 234° Southwest 397 457 38,000  Level FlightAware
09:57AM 38.1420 140.5670 235° Southwest 400 460 38,000  Level FlightAware
09:57AM 38.1020 140.4940 235° Southwest 395 455 38,000  Level FlightAware
09:58AM 38.0520 140.4060 234° Southwest 395 455 38,000  Level FlightAware
09:59AM 38.0060 140.3230 235° Southwest 394 453 38,000  Level FlightAware
10:00AM 37.9490 140.2220 234° Southwest 396 456 38,000  Level FlightAware
10:02AM 37.9894 139.9421 280° West  Level FlightAware Approximate
10:03AM 38.0115 139.7865 280° West  Level FlightAware Approximate
10:04AM 37.9416 139.6556 263° West  Level Estimated
10:05AM 37.9443 139.4976 271° West  Level FlightAware Approximate
10:06AM 37.9467 139.3396 271° West  Level FlightAware Approximate
10:07AM 37.9489 139.1816 271° West  Level FlightAware Approximate
10:08AM 37.8773 139.0523 234° Southwest  Level Estimated
10:09AM 37.8108 138.9189 238° Southwest  Level FlightAware Approximate
10:09AM 37.3470 139.1660 238° Southwest 372 428 38,000  Level FlightAware
10:10AM 37.3060 139.0960 234° Southwest 370 426 38,000  Level FlightAware
10:10AM 37.2650 139.0260 234° Southwest 367 422 38,000  Level FlightAware
10:11AM 37.2190 138.9470 234° Southwest 366 421 38,000  Level FlightAware
10:12AM 37.1790 138.8780 234° Southwest 366 421 38,000  Level FlightAware
10:13AM 37.1330 138.8000 234° Southwest 366 421 38,000  Level FlightAware
10:13AM 37.0930 138.7310 234° Southwest 368 423 38,000 -1,080 Level FlightAware
10:14AM 37.0240 138.6140 234° Southwest 384 442 36,100 -1,140 Descending FlightAware
10:15AM 36.9810 138.5420 233° Southwest 382 440 36,000 -480 Descending FlightAware
10:16AM 36.9340 138.4620 234° Southwest 382 440 35,500 -1,380 Descending FlightAware
10:17AM 36.8910 138.3890 234° Southwest 386 444 34,100 -1,200 Descending FlightAware
10:17AM 36.8550 138.3280 234° Southwest 393 452 34,000 -120 Descending FlightAware
10:18AM 36.8020 138.2400 233° Southwest 392 451 34,000  Level FlightAware
10:19AM 36.7500 138.1530 233° Southwest 394 453 34,000  Level FlightAware
10:19AM 36.7060 138.0800 233° Southwest 399 459 34,000  Level FlightAware
10:20AM 36.6520 137.9900 233° Southwest 401 461 34,000  Level FlightAware
10:21AM 36.5970 137.8970 234° Southwest 402 463 34,000  Level FlightAware
10:22AM 36.5490 137.8170 233° Southwest 406 467 34,000  Level FlightAware
10:23AM 36.4880 137.7170 233° Southwest 407 468 34,000  Level FlightAware
10:23AM 36.4340 137.6290 233° Southwest 403 464 34,000  Level FlightAware
10:24AM 36.3900 137.5550 234° Southwest 400 460 34,000  Level FlightAware
10:25AM 36.3450 137.4810 233° Southwest 399 459 34,000  Level FlightAware
10:25AM 36.2940 137.3980 233° Southwest 402 463 34,000 240 Level FlightAware
10:26AM 36.2490 137.3240 233° Southwest 406 467 34,400 1,200 Climbing FlightAware
10:27AM 36.1980 137.2410 233° Southwest 403 464 35,700 1,740 Climbing FlightAware
10:28AM 36.1520 137.1670 232° Southwest 402 463 36,900 1,680 Climbing FlightAware
10:28AM 36.1070 137.0940 233° Southwest 399 459 38,000 720 Climbing FlightAware
10:29AM 36.0570 137.0120 233° Southwest 400 460 38,000  Level FlightAware
10:30AM 36.0120 136.9400 232° Southwest 396 456 38,000  Level FlightAware
10:30AM 35.9630 136.8600 233° Southwest 398 458 38,000  Level FlightAware
10:31AM 35.9170 136.7870 232° Southwest 396 456 38,000  Level FlightAware
10:32AM 35.8720 136.7140 233° Southwest 401 461 38,000  Level FlightAware
10:32AM 35.8210 136.6330 232° Southwest 402 463 38,000  Level FlightAware
10:33AM 35.7750 136.5590 233° Southwest 404 465 38,000  Level FlightAware
10:34AM 35.7280 136.4850 232° Southwest 405 466 38,000  Level FlightAware
10:35AM 35.6770 136.4030 233° Southwest 405 466 38,000  Level FlightAware
10:35AM 35.6310 136.3300 232° Southwest 405 466 38,000  Level FlightAware
10:36AM 35.5780 136.2460 232° Southwest 406 467 38,000  Level FlightAware
10:37AM 35.5320 136.1730 232° Southwest 403 464 38,000  Level FlightAware
10:37AM 35.4860 136.1000 232° Southwest 396 456 38,000  Level FlightAware
10:38AM 35.4350 136.0200 232° Southwest 395 455 38,000  Level FlightAware
10:39AM 35.3910 135.9500 232° Southwest 395 455 38,000 -360 Level FlightAware
10:39AM 35.3400 135.8710 232° Southwest 397 457 37,500 -1,080 Descending FlightAware
10:40AM 35.2960 135.8020 232° Southwest 381 438 36,500 -2,040 Descending FlightAware
10:41AM 35.2510 135.7310 232° Southwest 393 452 34,800 -1,800 Descending FlightAware
10:42AM 35.1990 135.6520 231° Southwest 398 458 34,000 -600 Descending FlightAware
10:42AM 35.1530 135.5800 232° Southwest 397 457 34,000  Level FlightAware
10:43AM 35.1090 135.5120 232° Southwest 396 456 34,000  Level FlightAware
10:44AM 35.0600 135.4360 232° Southwest 396 456 34,000  Level FlightAware
10:44AM 35.0110 135.3600 232° Southwest 398 458 34,000  Level FlightAware
10:45AM 34.9590 135.2800 232° Southwest 395 455 34,000  Level FlightAware
10:46AM 34.9070 135.2000 232° Southwest 398 458 34,000  Level FlightAware
10:46AM 34.8610 135.1290 232° Southwest 398 458 34,000  Level FlightAware
10:47AM 34.8240 135.0730 231° Southwest 400 460 34,000  Level FlightAware
10:48AM 34.7620 134.9780 232° Southwest 409 471 34,000  Level FlightAware
10:49AM 34.7140 134.9050 231° Southwest 410 472 34,000  Level FlightAware
10:49AM 34.6680 134.8350 231° Southwest 411 473 34,000  Level FlightAware
10:50AM 34.6150 134.7540 232° Southwest 412 474 34,000  Level FlightAware
10:51AM 34.5680 134.6830 231° Southwest 412 474 34,000  Level FlightAware
10:51AM 34.5140 134.6010 231° Southwest 411 473 34,000  Level FlightAware
10:52AM 34.4660 134.5240 233° Southwest 403 464 34,000  Level FlightAware
10:53AM 34.4240 134.4520 235° Southwest 409 471 34,000  Level FlightAware
10:53AM 34.3730 134.3690 233° Southwest 409 471 34,000 300 Level FlightAware
10:54AM 34.3280 134.2940 234° Southwest 411 473 34,500 1,500 Climbing FlightAware
10:55AM 34.2770 134.2130 233° Southwest 405 466 36,200 2,160 Climbing FlightAware
10:56AM 34.2320 134.1400 233° Southwest 392 451 37,600 1,320 Climbing FlightAware
10:56AM 34.1890 134.0690 234° Southwest 407 468 38,000 240 Climbing FlightAware
10:57AM 34.1380 133.9870 233° Southwest 413 475 38,000  Level FlightAware
10:58AM 34.0930 133.9130 234° Southwest 412 474 38,000  Level FlightAware
10:58AM 34.0470 133.8390 233° Southwest 411 473 38,000  Level FlightAware
10:59AM 33.9950 133.7560 233° Southwest 408 470 38,000  Level FlightAware
11:00AM 33.9510 133.6840 234° Southwest 408 470 38,000  Level FlightAware
11:00AM 33.9030 133.6080 233° Southwest 409 471 38,000  Level FlightAware
11:01AM 33.8520 133.5250 234° Southwest 411 473 38,000  Level FlightAware
11:02AM 33.8070 133.4530 233° Southwest 412 474 38,000  Level FlightAware
11:03AM 33.7550 133.3710 233° Southwest 410 472 38,000  Level FlightAware
11:03AM 33.7090 133.2980 233° Southwest 411 473 38,000  Level FlightAware
11:04AM 33.6640 133.2260 233° Southwest 409 471 38,000  Level FlightAware
11:05AM 33.6060 133.1340 233° Southwest 409 471 38,000  Level FlightAware
11:05AM 33.5620 133.0640 233° Southwest 408 470 38,000  Level FlightAware
11:06AM 33.5160 132.9920 233° Southwest 406 467 38,000  Level FlightAware
11:07AM 33.4650 132.9110 233° Southwest 406 467 38,000  Level FlightAware
11:07AM 33.4260 132.8510 232° Southwest 406 467 38,000  Level FlightAware
11:08AM 33.3730 132.7670 233° Southwest 408 470 38,000  Level FlightAware
11:09AM 33.3270 132.6960 232° Southwest 408 470 38,000  Level FlightAware
11:09AM 33.2820 132.6240 233° Southwest 408 470 38,000  Level FlightAware
11:10AM 33.2240 132.5340 232° Southwest 411 473 38,000  Level FlightAware
11:11AM 33.1780 132.4620 233° Southwest 412 474 38,000  Level FlightAware
11:12AM 33.1250 132.3800 232° Southwest 414 476 38,000  Level FlightAware
11:12AM 33.0790 132.3100 232° Southwest 415 478 38,000  Level FlightAware
11:13AM 33.0320 132.2360 233° Southwest 413 475 38,000  Level FlightAware
11:14AM 32.9790 132.1560 232° Southwest 410 472 38,000  Level FlightAware
11:14AM 32.9330 132.0840 233° Southwest 409 471 38,000  Level FlightAware
11:15AM 32.8870 132.0130 232° Southwest 407 468 38,000  Level FlightAware
11:16AM 32.8350 131.9340 232° Southwest 407 468 38,000  Level FlightAware
11:17AM 32.7890 131.8630 232° Southwest 407 468 38,000  Level FlightAware
11:17AM 32.7430 131.7920 232° Southwest 409 471 38,000  Level FlightAware
11:18AM 32.6900 131.7130 231° Southwest 411 473 38,000  Level FlightAware
11:19AM 32.6430 131.6410 232° Southwest 413 475 38,000  Level FlightAware
11:19AM 32.5900 131.5610 232° Southwest 414 476 38,000  Level FlightAware
11:20AM 32.5430 131.4890 232° Southwest 413 475 38,000  Level FlightAware
11:21AM 32.4960 131.4180 232° Southwest 413 475 38,000  Level FlightAware
11:21AM 32.4440 131.3380 232° Southwest 412 474 38,000  Level FlightAware
11:22AM 32.3970 131.2670 232° Southwest 411 473 38,000  Level FlightAware
11:23AM 32.3490 131.1960 231° Southwest 413 475 38,000  Level FlightAware
11:23AM 32.3140 131.1430 232° Southwest 414 476 38,000  Level FlightAware
11:24AM 32.2660 131.0720 231° Southwest 417 480 38,000  Level FlightAware
11:25AM 32.2190 131.0010 232° Southwest 417 480 38,000  Level FlightAware
11:25AM 32.1640 130.9200 231° Southwest 418 481 38,000  Level FlightAware
11:26AM 32.1110 130.8400 232° Southwest 421 484 38,000  Level FlightAware
11:27AM 32.0650 130.7720 231° Southwest 421 484 38,000  Level FlightAware
11:28AM 32.0090 130.6890 232° Southwest 421 484 38,000  Level FlightAware
11:28AM 31.9610 130.6180 231° Southwest 422 486 38,000  Level FlightAware
11:29AM 31.9150 130.5500 231° Southwest 423 487 38,000  Level FlightAware
11:30AM 31.8580 130.4660 231° Southwest 423 487 38,000  Level FlightAware
11:30AM 31.8080 130.3920 232° Southwest 424 488 38,000  Level FlightAware
11:31AM 31.7540 130.3120 232° Southwest 427 491 38,000  Level FlightAware
11:32AM 31.7050 130.2400 231° Southwest 428 493 38,000  Level FlightAware
11:32AM 31.6490 130.1580 231° Southwest 426 490 38,000  Level FlightAware
11:33AM 31.6000 130.0870 231° Southwest 426 490 38,000  Level FlightAware
11:34AM 31.5540 130.0200 231° Southwest 425 489 38,000  Level FlightAware
11:35AM 31.4960 129.9350 231° Southwest 425 489 38,000  Level FlightAware
11:35AM 31.4410 129.8560 231° Southwest 427 491 38,000  Level FlightAware
11:36AM 31.3900 129.7820 231° Southwest 427 491 38,000  Level FlightAware
11:37AM 31.3400 129.7100 231° Southwest 425 489 38,000  Level FlightAware
11:37AM 31.2850 129.6290 232° Southwest 425 489 38,000  Level FlightAware
11:38AM 31.2440 129.5710 230° Southwest 425 489 38,000  Level FlightAware
11:39AM 31.1970 129.5030 231° Southwest 424 488 38,000  Level FlightAware
11:40AM 31.1250 129.4000 231° Southwest 424 488 38,000  Level FlightAware
11:40AM 31.0750 129.3280 231° Southwest 424 488 38,000  Level FlightAware
11:41AM 31.0230 129.2530 231° Southwest 424 488 38,000  Level FlightAware
11:42AM 30.9910 129.2070 231° Southwest 424 488 38,000  Level FlightAware
11:42AM 30.9390 129.1320 231° Southwest 424 488 38,000  Level FlightAware
11:43AM 30.8970 129.0710 231° Southwest 424 488 38,000  Level FlightAware
11:44AM 30.8550 129.0110 231° Southwest 424 488 38,000  Level FlightAware
11:44AM 30.8130 128.9510 231° Southwest 424 488 38,000  Level FlightAware
11:45AM 30.7600 128.8750 231° Southwest 424 488 38,000  Level FlightAware
11:46AM 30.7180 128.8150 231° Southwest 424 488 38,000  Level FlightAware
11:47AM 30.6760 128.7550 231° Southwest 424 488 38,000  Level FlightAware
11:47AM 30.6340 128.6940 231° Southwest 424 488 38,000  Level FlightAware
11:48AM 30.5930 128.6340 232° Southwest 424 488 38,000  Level FlightAware
11:49AM 30.5400 128.5590 231° Southwest 424 488 38,000  Level FlightAware
11:49AM 30.4980 128.4990 231° Southwest 424 488 38,000  Level FlightAware
11:52AM 30.3391 128.2670 232° Southwest  Level Estimated
11:53AM 30.2615 128.1541 231° Southwest  Level Estimated
11:54AM 30.1838 128.0414 231° Southwest  Level Estimated
11:55AM 30.1059 127.9288 231° Southwest  Level Estimated
11:56AM 30.0280 127.8165 231° Southwest  Level Estimated
11:57AM 29.9500 127.7043 231° Southwest  Level Estimated
11:58AM 29.8719 127.5923 231° Southwest  Level Estimated
11:59AM 29.7936 127.4804 231° Southwest  Level Estimated
12:00PM 29.7153 127.3688 231° Southwest  Level Estimated
12:01PM 29.6369 127.2573 231° Southwest  Level Estimated
12:02PM 29.5585 127.1460 231° Southwest  Level Estimated
12:03PM 29.4799 127.0348 231° Southwest  Level Estimated
12:04PM 29.4012 126.9239 231° Southwest  Level Estimated
12:05PM 29.3224 126.8131 231° Southwest  Level Estimated
12:06PM 29.2435 126.7024 231° Southwest  Level Estimated
12:07PM 29.1646 126.5920 231° Southwest  Level Estimated
12:08PM 29.0856 126.4817 231° Southwest  Level Estimated
12:09PM 29.0064 126.3716 231° Southwest  Level Estimated
12:10PM 28.9272 126.2616 231° Southwest  Level Estimated
12:11PM 28.8479 126.1519 230° Southwest  Level Estimated
12:12PM 28.7685 126.0423 230° Southwest  Level Estimated
12:13PM 28.6890 125.9328 230° Southwest  Level Estimated
12:14PM 28.6094 125.8235 230° Southwest  Level Estimated
12:15PM 28.5298 125.7144 230° Southwest  Level Estimated
12:16PM 28.4500 125.6055 230° Southwest  Level Estimated
12:17PM 28.3702 125.4967 230° Southwest  Level Estimated
12:18PM 28.2903 125.3881 230° Southwest  Level Estimated
12:19PM 28.2103 125.2796 230° Southwest  Level Estimated
12:20PM 28.1301 125.1713 230° Southwest  Level Estimated
12:21PM 28.0500 125.0632 230° Southwest  Level Estimated
12:22PM 27.9697 124.9552 230° Southwest  Level Estimated
12:23PM 27.8894 124.8474 230° Southwest  Level Estimated
12:24PM 27.8089 124.7398 230° Southwest  Level Estimated
12:25PM 27.7284 124.6323 230° Southwest  Level Estimated
12:26PM 27.6478 124.5249 230° Southwest  Level Estimated
12:27PM 27.5671 124.4178 230° Southwest  Level Estimated
12:28PM 27.4864 124.3108 230° Southwest  Level Estimated
12:29PM 27.4055 124.2039 230° Southwest  Level Estimated
12:30PM 27.3246 124.0972 230° Southwest  Level Estimated
12:31PM 27.2436 123.9906 229° Southwest  Level Estimated
12:32PM 27.1625 123.8842 229° Southwest  Level Estimated
12:33PM 27.0813 123.7780 229° Southwest  Level Estimated
12:34PM 27.0001 123.6719 229° Southwest  Level Estimated
12:35PM 26.9187 123.5660 229° Southwest  Level Estimated
12:36PM 26.8373 123.4602 229° Southwest  Level Estimated
12:36PM 26.6910 123.4700 229° Southwest 433 498 40,000  Level FlightAware
12:37PM 26.7558 123.3546 229° Southwest  Level Estimated
12:37PM 26.6310 123.3910 230° Southwest 432 497 40,000  Level FlightAware
12:38PM 26.5810 123.3250 230° Southwest 432 497 40,000  Level FlightAware
12:38PM 26.5270 123.2550 229° Southwest 432 497 40,000  Level FlightAware
12:39PM 26.4700 123.1800 230° Southwest 431 496 40,000 -360 Level FlightAware
12:40PM 26.4180 123.1120 230° Southwest 432 497 39,500 -1,740 Descending FlightAware
12:41PM 26.3580 123.0340 229° Southwest 437 503 37,600 -3,000 Descending FlightAware
12:41PM 26.3070 122.9680 229° Southwest 447 514 35,300 -3,300 Descending FlightAware
12:42PM 26.2510 122.8940 230° Southwest 448 516 33,200 -2,700 Descending FlightAware
12:43PM 26.1930 122.8160 230° Southwest 435 501 31,500 -2,340 Descending FlightAware
12:43PM 26.1420 122.7490 230° Southwest 430 495 29,900 -2,520 Descending FlightAware
12:44PM 26.0900 122.6800 230° Southwest 423 487 28,200 -2,280 Descending FlightAware
12:45PM 26.0350 122.6090 229° Southwest 410 472 26,700 -1,920 Descending FlightAware
12:45PM 25.9870 122.5450 230° Southwest 396 456 25,500 -2,280 Descending FlightAware
12:46PM 25.9340 122.4760 230° Southwest 396 456 23,500 -2,700 Descending FlightAware
12:47PM 25.8840 122.4130 229° Southwest 393 452 21,700 -2,580 Descending FlightAware
12:48PM 25.8370 122.3550 228° Southwest 387 445 20,100 -2,340 Descending FlightAware
12:48PM 25.7830 122.2870 229° Southwest 377 434 18,400 -2,220 Descending FlightAware
12:49PM 25.7370 122.2300 228° Southwest 369 425 17,000 -1,920 Descending FlightAware
12:50PM 25.6910 122.1680 231° Southwest 352 405 15,700 -1,680 Descending FlightAware
12:50PM 25.6540 122.1100 235° Southwest 336 387 14,700 -1,680 Descending FlightAware
12:51PM 25.6190 122.0500 237° Southwest 332 382 13,500 -1,800 Descending FlightAware
12:52PM 25.5820 121.9870 237° Southwest 325 374 12,200 -1,500 Descending FlightAware
12:52PM 25.5500 121.9330 237° Southwest 309 356 11,400 -1,080 Descending FlightAware
12:53PM 25.5150 121.8760 236° Southwest 285 328 10,700 -900 Descending FlightAware
12:54PM 25.4880 121.8310 236° Southwest 268 308 10,200 -1,140 Descending FlightAware
12:54PM 25.4670 121.7970 236° Southwest 269 310 9,400 -1,440 Descending FlightAware
12:55PM 25.4490 121.7670 236° Southwest 268 308 8,900 -1,320 Descending FlightAware
12:55PM 25.4290 121.7330 237° Southwest 265 305 8,200 -1,320 Descending FlightAware
12:56PM 25.4120 121.7060 235° Southwest 263 303 7,700 -1,320 Descending FlightAware
12:56PM 25.3910 121.6700 237° Southwest 261 300 7,000 -1,320 Descending FlightAware
12:57PM 25.3710 121.6370 236° Southwest 257 296 6,400 -1,200 Descending FlightAware
12:57PM 25.3560 121.6120 236° Southwest 253 291 5,900 -1,140 Descending FlightAware
12:58PM 25.3360 121.5790 236° Southwest 245 282 5,400 -840 Descending FlightAware
12:58PM 25.3270 121.5650 235° Southwest 237 273 5,300 -780 Descending FlightAware
12:58PM 25.3120 121.5400 236° Southwest 224 258 4,900 -600 Descending FlightAware
12:59PM 25.2960 121.5130 237° Southwest 201 231 4,800 -180 Descending FlightAware
12:59PM 25.2880 121.4990 238° Southwest 189 217 4,800  Level FlightAware
12:59PM 25.2760 121.4800 235° Southwest 184 212 4,800  Level FlightAware
01:00PM 25.2620 121.4570 236° Southwest 184 212 4,800 -120 Level FlightAware
01:00PM 25.2480 121.4390 229° Southwest 185 213 4,700 -720 Descending FlightAware
01:01PM 25.2360 121.4240 229° Southwest 180 207 4,300 -1,080 Descending FlightAware
01:01PM 25.2290 121.4150 229° Southwest 174 200 4,100 -840 Descending FlightAware
01:01PM 25.2140 121.3960 229° Southwest 156 180 3,700 -900 Descending FlightAware
01:02PM 25.2020 121.3800 230° Southwest 155 178 3,300 -900 Descending FlightAware
01:02PM 25.1880 121.3620 229° Southwest 155 178 2,900 -840 Descending FlightAware
01:03PM 25.1740 121.3450 228° Southwest 153 176 2,500 -900 Descending FlightAware
01:03PM 25.1620 121.3300 229° Southwest 154 177 2,100 -900 Descending FlightAware
01:04PM 25.1480 121.3120 229° Southwest 146 168 1,700 -840 Descending FlightAware
01:04PM 25.1410 121.3030 229° Southwest 144 166 1,500 -780 Descending FlightAware
01:04PM 25.1310 121.2900 230° Southwest 144 166 1,200 -660 Descending FlightAware
01:05PM 25.1180 121.2730 230° Southwest 143 165 900 -720 Descending FlightAware
01:05PM 25.1110 121.2650 226° Southwest 144 166 700 -900 Descending FlightAware
01:06PM 25.1000 121.2500 231° Southwest 151 174 300 -960 Descending FlightAware